Time;durP1;ratioP1;P1;durP2;ratioP2;P2;SDS_P1;SDS_P2;PMS_P1;PMS_P2;Temp;Humidity;BMP_temperature;BMP_pressure;BME280_temperature;BME280_humidity;BME280_pressure;Samples;Min_cycle;Max_cycle;Signal;HPM_P1;HPM_P2
2022/12/13 00:01:55;;;;;;;;;;;-4.30;99.90;;;;;;5097380;28;20229;-76
2022/12/13 00:04:21;;;;;;;;;;;-4.30;99.90;;;;;;5097298;28;19912;-72
2022/12/13 00:06:47;;;;;;;;;;;-4.30;99.90;;;;;;5134798;27;19912;-72
2022/12/13 00:09:13;;;;;;;;;;;-4.40;99.90;;;;;;5100062;27;20450;-72
2022/12/13 00:11:39;;;;;;;;;;;-4.50;99.90;;;;;;5108131;27;19937;-72
2022/12/13 00:14:04;;;;;;;;;;;-4.50;99.90;;;;;;5097336;28;20010;-72
2022/12/13 00:16:30;;;;;;;;;;;-4.40;99.90;;;;;;5097284;28;19912;-73
2022/12/13 00:18:56;;;;;;;;;;;-4.40;99.90;;;;;;5101272;28;19916;-73
2022/12/13 00:21:23;;;;;;;;;;;-4.50;99.90;;;;;;5096019;28;19916;-72
2022/12/13 00:23:49;;;;;;;;;;;-4.40;99.90;;;;;;5096924;28;19908;-72
2022/12/13 00:26:16;;;;;;;;;;;-4.40;99.90;;;;;;5102210;28;19923;-72
2022/12/13 00:28:41;;;;;;;;;;;-4.50;99.90;;;;;;5104071;28;20328;-72
2022/12/13 00:31:07;;;;;;;;;;;-4.40;99.90;;;;;;5112846;27;19908;-72
2022/12/13 00:33:33;;;;;;;;;;;-4.40;99.90;;;;;;5099629;28;19963;-72
2022/12/13 00:35:58;;;;;;;;;;;-4.60;99.90;;;;;;5097307;28;19985;-72
2022/12/13 00:38:24;;;;;;;;;;;-4.70;99.90;;;;;;5104478;27;19979;-72
2022/12/13 00:40:51;;;;;;;;;;;-4.90;99.90;;;;;;5098136;28;19968;-74
2022/12/13 00:43:17;;;;;;;;;;;-5.00;99.90;;;;;;5100089;28;19912;-72
2022/12/13 00:45:42;;;;;;;;;;;-5.00;99.90;;;;;;5104845;28;20302;-72
2022/12/13 00:48:08;;;;;;;;;;;-5.10;99.90;;;;;;5104239;28;19999;-72
2022/12/13 00:50:34;;;;;;;;;;;-5.10;99.90;;;;;;5109401;28;20214;-72
2022/12/13 00:53:00;;;;;;;;;;;-5.00;99.90;;;;;;5130057;27;19915;-72
2022/12/13 00:55:25;;;;;;;;;;;-5.00;99.90;;;;;;5096844;28;19963;-72
2022/12/13 00:57:51;;;;;;;;;;;-5.10;99.90;;;;;;5107785;28;19912;-71
2022/12/13 01:00:17;;;;;;;;;;;-5.10;99.90;;;;;;5105725;28;19919;-73
2022/12/13 01:02:42;;;;;;;;;;;-5.10;99.90;;;;;;5098483;27;19912;-72
2022/12/13 01:05:08;;;;;;;;;;;-5.20;99.90;;;;;;5096520;28;19965;-76
2022/12/13 01:07:34;;;;;;;;;;;-5.30;99.90;;;;;;5098210;27;19912;-76
2022/12/13 01:10:00;;;;;;;;;;;-5.30;99.90;;;;;;5103485;28;20319;-76
2022/12/13 01:12:25;;;;;;;;;;;-5.40;99.90;;;;;;5102501;27;20030;-72
2022/12/13 01:14:51;;;;;;;;;;;-5.50;99.90;;;;;;5101082;28;19912;-73
2022/12/13 01:17:16;;;;;;;;;;;-5.50;99.90;;;;;;5112637;28;19912;-76
2022/12/13 01:19:42;;;;;;;;;;;-5.60;99.90;;;;;;5100550;27;19916;-76
2022/12/13 01:22:07;;;;;;;;;;;-5.60;99.90;;;;;;5099053;27;19912;-71
2022/12/13 01:24:33;;;;;;;;;;;-5.60;99.90;;;;;;5112588;28;19961;-72
2022/12/13 01:26:59;;;;;;;;;;;-5.60;99.90;;;;;;5103832;28;19919;-71
2022/12/13 01:29:25;;;;;;;;;;;-5.60;99.90;;;;;;5100965;28;19978;-71
2022/12/13 01:31:50;;;;;;;;;;;-5.50;99.90;;;;;;5098469;28;19916;-71
2022/12/13 01:34:17;;;;;;;;;;;-5.60;99.90;;;;;;5105125;28;19938;-71
2022/12/13 01:36:44;;;;;;;;;;;-5.60;99.90;;;;;;5103019;28;19998;-76
2022/12/13 01:39:12;;;;;;;;;;;-5.60;99.90;;;;;;5095915;28;19989;-71
2022/12/13 01:41:37;;;;;;;;;;;-5.60;99.90;;;;;;5104442;28;20306;-75
2022/12/13 01:44:26;;;;;;;;;;;-5.60;99.90;;;;;;5102415;27;19919;-75
2022/12/13 01:46:51;;;;;;;;;;;-5.70;99.90;;;;;;5101562;28;19920;-72
2022/12/13 01:49:17;;;;;;;;;;;-5.80;99.90;;;;;;5099654;28;19912;-71
2022/12/13 01:51:45;;;;;;;;;;;-5.80;99.90;;;;;;5097709;28;19912;-75
2022/12/13 01:54:12;;;;;;;;;;;-5.90;99.90;;;;;;5103204;28;19924;-71
2022/12/13 01:56:41;;;;;;;;;;;-5.90;99.90;;;;;;5095933;28;19920;-75
2022/12/13 01:59:09;;;;;;;;;;;-5.90;99.90;;;;;;5095082;28;20222;-71
2022/12/13 02:01:34;;;;;;;;;;;-5.90;99.90;;;;;;5104579;27;19912;-71
2022/12/13 02:04:00;;;;;;;;;;;-5.80;99.90;;;;;;5109520;28;19912;-76
2022/12/13 02:06:31;;;;;;;;;;;-5.70;99.90;;;;;;5103630;28;19964;-71
2022/12/13 02:08:57;;;;;;;;;;;-5.70;99.90;;;;;;5097953;28;20363;-71
2022/12/13 02:11:22;;;;;;;;;;;-5.70;99.90;;;;;;5097398;28;20006;-70
2022/12/13 02:13:48;;;;;;;;;;;-5.70;99.90;;;;;;5100219;28;19922;-70
2022/12/13 02:16:26;;;;;;;;;;;-5.70;99.90;;;;;;5098544;28;19916;-75
2022/12/13 02:18:52;;;;;;;;;;;-5.70;99.90;;;;;;5102818;28;19973;-71
2022/12/13 02:21:25;;;;;;;;;;;-5.70;99.90;;;;;;5092016;27;19951;-71
2022/12/13 02:24:10;;;;;;;;;;;-5.70;99.90;;;;;;5102827;28;20306;-71
2022/12/13 02:26:46;;;;;;;;;;;-5.60;99.90;;;;;;5113854;28;20101;-71
2022/12/13 02:29:11;;;;;;;;;;;-5.60;99.90;;;;;;5097041;27;19988;-71
2022/12/13 02:32:00;;;;;;;;;;;-5.60;99.90;;;;;;5101244;28;19978;-71
2022/12/13 02:34:29;;;;;;;;;;;-5.60;99.90;;;;;;5102633;28;19946;-71
2022/12/13 02:37:00;;;;;;;;;;;-5.60;99.90;;;;;;5099789;28;19934;-71
2022/12/13 02:39:46;;;;;;;;;;;-5.60;99.90;;;;;;5096194;28;20350;-71
2022/12/13 02:42:17;;;;;;;;;;;-5.60;99.90;;;;;;5101108;28;19961;-71
2022/12/13 02:44:49;;;;;;;;;;;-5.60;99.90;;;;;;5098321;28;19927;-71
2022/12/13 02:47:18;;;;;;;;;;;-5.60;99.90;;;;;;5105246;28;19989;-72
2022/12/13 02:49:46;;;;;;;;;;;-5.60;99.90;;;;;;5104278;27;19912;-71
2022/12/13 02:52:14;;;;;;;;;;;-5.80;99.90;;;;;;5139427;27;19918;-73
2022/12/13 02:54:40;;;;;;;;;;;-5.80;99.90;;;;;;5113771;27;19984;-71
2022/12/13 02:57:25;;;;;;;;;;;-5.90;99.90;;;;;;5109422;27;19974;-72
2022/12/13 02:59:51;;;;;;;;;;;-5.80;99.90;;;;;;5102893;27;19973;-72
2022/12/13 03:02:22;;;;;;;;;;;-5.80;99.90;;;;;;5103094;28;20064;-71
2022/12/13 03:07:50;;;;;;;;;;;-5.70;99.90;;;;;;5105190;28;20405;-72
2022/12/13 03:10:21;;;;;;;;;;;-5.70;99.90;;;;;;5103269;28;19915;-71
2022/12/13 03:15:41;;;;;;;;;;;-5.70;99.90;;;;;;5103547;28;19927;-75
2022/12/13 03:18:17;;;;;;;;;;;-5.60;99.90;;;;;;5101495;28;20003;-71
2022/12/13 03:20:47;;;;;;;;;;;-5.50;99.90;;;;;;5102442;28;19920;-71
2022/12/13 03:23:14;;;;;;;;;;;-5.60;99.90;;;;;;5110081;28;19912;-72
2022/12/13 03:25:39;;;;;;;;;;;-5.60;99.90;;;;;;5104675;28;19955;-71
2022/12/13 03:28:05;;;;;;;;;;;-5.60;99.90;;;;;;5105492;27;19955;-71
2022/12/13 03:30:30;;;;;;;;;;;-5.70;99.90;;;;;;5113866;28;19916;-72
2022/12/13 03:32:56;;;;;;;;;;;-5.80;99.90;;;;;;5110253;28;19916;-73
2022/12/13 03:35:22;;;;;;;;;;;-5.80;99.90;;;;;;5109237;27;19923;-71
2022/12/13 03:37:47;;;;;;;;;;;-5.90;99.90;;;;;;5097440;27;19927;-71
2022/12/13 03:40:13;;;;;;;;;;;-5.90;99.90;;;;;;5107973;28;19915;-71
2022/12/13 03:42:38;;;;;;;;;;;-5.90;99.90;;;;;;5108397;27;19915;-72
2022/12/13 03:45:04;;;;;;;;;;;-6.00;99.90;;;;;;5101246;28;19995;-71
2022/12/13 03:47:29;;;;;;;;;;;-6.00;99.90;;;;;;5105138;28;19974;-75
2022/12/13 03:49:55;;;;;;;;;;;-6.10;99.90;;;;;;5104566;28;20033;-73
2022/12/13 03:52:20;;;;;;;;;;;-6.10;99.90;;;;;;5102721;28;19958;-72
2022/12/13 03:54:46;;;;;;;;;;;-6.10;99.90;;;;;;5102740;28;20007;-74
2022/12/13 03:57:14;;;;;;;;;;;-6.10;99.90;;;;;;5102474;28;19912;-71
2022/12/13 03:59:40;;;;;;;;;;;-6.00;99.90;;;;;;5111707;28;20195;-73
2022/12/13 04:02:05;;;;;;;;;;;-6.00;99.90;;;;;;5112402;28;19962;-72
2022/12/13 04:04:31;;;;;;;;;;;-6.00;99.90;;;;;;5104541;28;19962;-72
2022/12/13 04:06:56;;;;;;;;;;;-6.00;99.90;;;;;;5109806;27;19920;-71
2022/12/13 04:09:22;;;;;;;;;;;-5.90;99.90;;;;;;5108497;28;19919;-71
2022/12/13 04:14:31;;;;;;;;;;;-5.90;99.90;;;;;;5112861;28;19984;-71
2022/12/13 04:16:57;;;;;;;;;;;-5.80;99.90;;;;;;5110901;28;19908;-71
2022/12/13 04:19:22;;;;;;;;;;;-5.70;99.90;;;;;;5115349;28;19966;-71
2022/12/13 04:21:48;;;;;;;;;;;-5.60;99.90;;;;;;5110634;28;20027;-72
2022/12/13 04:24:13;;;;;;;;;;;-5.50;99.90;;;;;;5112718;28;19911;-70
2022/12/13 04:26:39;;;;;;;;;;;-5.60;99.90;;;;;;5113633;28;19922;-71
2022/12/13 04:29:04;;;;;;;;;;;-5.60;99.90;;;;;;5110010;28;19908;-71
2022/12/13 04:31:30;;;;;;;;;;;-5.60;99.90;;;;;;5113645;28;19916;-72
2022/12/13 04:33:55;;;;;;;;;;;-5.60;99.90;;;;;;5113511;28;19971;-72
2022/12/13 04:36:21;;;;;;;;;;;-5.60;99.90;;;;;;5107742;27;19933;-72
2022/12/13 04:38:46;;;;;;;;;;;-5.50;99.90;;;;;;5095259;28;20320;-73
2022/12/13 04:41:14;;;;;;;;;;;-5.50;99.90;;;;;;5111395;28;19961;-74
2022/12/13 04:43:39;;;;;;;;;;;-5.50;99.90;;;;;;5109030;28;19962;-71
2022/12/13 04:46:05;;;;;;;;;;;-5.60;99.90;;;;;;5115979;27;19988;-74
2022/12/13 04:48:31;;;;;;;;;;;-5.70;99.90;;;;;;5106018;27;19912;-75
2022/12/13 04:50:57;;;;;;;;;;;-5.80;99.90;;;;;;5104538;28;19908;-72
2022/12/13 04:53:22;;;;;;;;;;;-5.80;99.90;;;;;;5103259;27;19915;-71
2022/12/13 04:55:48;;;;;;;;;;;-5.80;99.90;;;;;;5098999;28;19977;-75
2022/12/13 04:58:13;;;;;;;;;;;-5.80;99.90;;;;;;5105797;28;20301;-71
2022/12/13 05:00:39;;;;;;;;;;;-5.80;99.90;;;;;;5104644;28;20256;-71
2022/12/13 05:03:05;;;;;;;;;;;-5.80;99.90;;;;;;5102294;27;20310;-72
2022/12/13 05:05:30;;;;;;;;;;;-5.80;99.90;;;;;;5105570;28;19916;-71
2022/12/13 05:07:56;;;;;;;;;;;-5.90;99.90;;;;;;5095098;28;19925;-72
2022/12/13 05:10:21;;;;;;;;;;;-5.90;99.90;;;;;;5103991;28;19916;-71
2022/12/13 05:12:47;;;;;;;;;;;-5.90;99.90;;;;;;5096749;27;19958;-71
2022/12/13 05:15:12;;;;;;;;;;;-6.00;99.90;;;;;;5095749;28;19965;-72
2022/12/13 05:17:38;;;;;;;;;;;-6.00;99.90;;;;;;5111269;28;19908;-75
2022/12/13 05:20:03;;;;;;;;;;;-6.10;99.90;;;;;;5096090;28;20215;-72
2022/12/13 05:22:29;;;;;;;;;;;-6.10;99.90;;;;;;5103213;28;19912;-73
2022/12/13 05:24:55;;;;;;;;;;;-6.20;99.90;;;;;;5101358;28;20211;-71
2022/12/13 05:27:20;;;;;;;;;;;-6.30;99.90;;;;;;5137540;27;19916;-71
2022/12/13 05:29:46;;;;;;;;;;;-6.20;99.90;;;;;;5095486;28;19919;-72
2022/12/13 05:32:11;;;;;;;;;;;-6.30;99.90;;;;;;5104792;28;19915;-71
2022/12/13 05:34:37;;;;;;;;;;;-6.30;99.90;;;;;;5099976;28;20305;-71
2022/12/13 05:37:02;;;;;;;;;;;-6.30;99.90;;;;;;5096861;28;19912;-75
2022/12/13 05:39:28;;;;;;;;;;;-6.30;99.90;;;;;;5097638;28;20050;-72
2022/12/13 05:41:54;;;;;;;;;;;-6.30;99.90;;;;;;5096807;28;19908;-72
2022/12/13 05:44:20;;;;;;;;;;;-6.40;99.90;;;;;;5097556;28;20365;-72
2022/12/13 05:46:45;;;;;;;;;;;-6.40;99.90;;;;;;5088759;27;20026;-72
2022/12/13 05:49:11;;;;;;;;;;;-6.40;99.90;;;;;;5095095;28;19920;-71
2022/12/13 05:51:36;;;;;;;;;;;-6.30;99.90;;;;;;5107827;28;19915;-72
2022/12/13 05:54:02;;;;;;;;;;;-6.30;99.90;;;;;;5096749;28;19916;-71
2022/12/13 05:56:27;;;;;;;;;;;-6.20;99.90;;;;;;5087340;27;19908;-71
2022/12/13 05:58:53;;;;;;;;;;;-6.30;99.90;;;;;;5131598;27;19923;-71
2022/12/13 06:01:19;;;;;;;;;;;-6.20;99.90;;;;;;5104798;28;20309;-76
2022/12/13 06:03:44;;;;;;;;;;;-6.20;99.90;;;;;;5110670;28;19914;-71
2022/12/13 06:06:11;;;;;;;;;;;-6.20;99.90;;;;;;5104363;28;19908;-71
2022/12/13 06:08:36;;;;;;;;;;;-6.10;99.90;;;;;;5101149;28;19908;-71
2022/12/13 06:11:03;;;;;;;;;;;-6.20;99.90;;;;;;5100828;28;19965;-74
2022/12/13 06:13:28;;;;;;;;;;;-6.30;99.90;;;;;;5098094;27;19919;-71
2022/12/13 06:15:54;;;;;;;;;;;-6.30;99.90;;;;;;5098581;28;19921;-76
2022/12/13 06:18:19;;;;;;;;;;;-6.30;99.90;;;;;;5097456;28;19991;-76
2022/12/13 06:20:54;;;;;;;;;;;-6.30;99.90;;;;;;5142568;27;19926;-77
2022/12/13 06:23:19;;;;;;;;;;;-6.20;99.90;;;;;;5096899;28;19916;-71
2022/12/13 06:25:45;;;;;;;;;;;-6.20;99.90;;;;;;5095051;28;19916;-71
2022/12/13 06:28:10;;;;;;;;;;;-6.20;99.90;;;;;;5098450;28;19919;-72
2022/12/13 06:30:36;;;;;;;;;;;-6.20;99.90;;;;;;5097239;28;19923;-71
2022/12/13 06:33:02;;;;;;;;;;;-6.10;99.90;;;;;;5105162;28;19916;-71
2022/12/13 06:35:27;;;;;;;;;;;-6.10;99.90;;;;;;5095800;28;19916;-71
2022/12/13 06:37:53;;;;;;;;;;;-6.20;99.90;;;;;;5101375;28;19995;-72
2022/12/13 06:40:19;;;;;;;;;;;-6.40;99.90;;;;;;5100227;28;19916;-72
2022/12/13 06:42:44;;;;;;;;;;;-6.50;99.90;;;;;;5096249;28;20282;-71
2022/12/13 06:45:10;;;;;;;;;;;-6.50;99.90;;;;;;5101730;28;20214;-71
2022/12/13 06:47:35;;;;;;;;;;;-6.50;99.90;;;;;;5104848;28;19927;-71
2022/12/13 06:50:01;;;;;;;;;;;-6.60;99.90;;;;;;5098140;28;19961;-76
2022/12/13 06:52:26;;;;;;;;;;;-6.60;99.90;;;;;;5094738;28;20249;-71
2022/12/13 06:54:52;;;;;;;;;;;-6.60;99.90;;;;;;5107206;28;20294;-72
2022/12/13 06:57:18;;;;;;;;;;;-6.60;99.90;;;;;;5098954;27;19916;-72
2022/12/13 06:59:44;;;;;;;;;;;-6.40;99.90;;;;;;5111076;28;20324;-71
2022/12/13 07:02:09;;;;;;;;;;;-6.20;99.90;;;;;;5096229;27;19912;-71
2022/12/13 07:04:35;;;;;;;;;;;-6.10;99.90;;;;;;5102563;28;19920;-72
2022/12/13 07:07:01;;;;;;;;;;;-6.00;99.90;;;;;;5108359;28;19916;-76
2022/12/13 07:09:27;;;;;;;;;;;-6.00;99.90;;;;;;5111631;28;19959;-71
2022/12/13 07:11:52;;;;;;;;;;;-6.00;99.90;;;;;;5103530;28;19958;-71
2022/12/13 07:14:18;;;;;;;;;;;-5.90;99.90;;;;;;5103637;28;19916;-71
2022/12/13 07:16:44;;;;;;;;;;;-5.90;99.90;;;;;;5106073;28;19916;-71
2022/12/13 07:19:10;;;;;;;;;;;-5.90;99.90;;;;;;5112126;28;20219;-71
2022/12/13 07:21:37;;;;;;;;;;;-5.90;99.90;;;;;;5109841;28;19919;-71
2022/12/13 07:24:02;;;;;;;;;;;-5.90;99.90;;;;;;5107822;28;20287;-72
2022/12/13 07:26:28;;;;;;;;;;;-5.80;99.90;;;;;;5138145;27;19959;-76
2022/12/13 07:28:54;;;;;;;;;;;-5.80;99.90;;;;;;5106968;28;19908;-71
2022/12/13 07:31:19;;;;;;;;;;;-5.80;99.90;;;;;;5107889;28;19912;-71
2022/12/13 07:33:45;;;;;;;;;;;-5.90;99.90;;;;;;5109643;28;19947;-72
2022/12/13 07:36:11;;;;;;;;;;;-5.90;99.90;;;;;;5098191;28;19913;-72
2022/12/13 07:38:37;;;;;;;;;;;-5.90;99.90;;;;;;5108029;28;19917;-71
2022/12/13 07:41:04;;;;;;;;;;;-5.90;99.90;;;;;;5098152;28;19916;-71
2022/12/13 07:43:30;;;;;;;;;;;-5.90;99.90;;;;;;5111935;28;19916;-71
2022/12/13 07:45:59;;;;;;;;;;;-5.90;99.90;;;;;;5103702;28;20366;-71
2022/12/13 07:48:25;;;;;;;;;;;-5.90;99.90;;;;;;5102007;28;20374;-70
2022/12/13 07:50:51;;;;;;;;;;;-5.90;99.90;;;;;;5108305;28;20014;-71
2022/12/13 07:53:16;;;;;;;;;;;-5.90;99.90;;;;;;5106066;28;20295;-72
2022/12/13 07:55:42;;;;;;;;;;;-5.80;99.90;;;;;;5105511;28;20360;-71
2022/12/13 07:58:09;;;;;;;;;;;-5.80;99.90;;;;;;5112697;28;19912;-72
2022/12/13 08:00:35;;;;;;;;;;;-5.80;99.90;;;;;;5109878;28;19916;-71
2022/12/13 08:03:01;;;;;;;;;;;-5.80;99.90;;;;;;5105291;27;19923;-71
2022/12/13 08:05:27;;;;;;;;;;;-5.70;99.90;;;;;;5100978;28;19916;-71
2022/12/13 08:07:52;;;;;;;;;;;-5.70;99.90;;;;;;5096295;27;19961;-71
2022/12/13 08:10:18;;;;;;;;;;;-5.70;99.90;;;;;;5109016;28;20264;-73
2022/12/13 08:12:44;;;;;;;;;;;-5.80;99.90;;;;;;5096555;28;19965;-72
2022/12/13 08:15:09;;;;;;;;;;;-5.80;99.90;;;;;;5098552;28;19916;-71
2022/12/13 08:17:35;;;;;;;;;;;-5.70;99.90;;;;;;5108049;28;20418;-71
2022/12/13 08:20:01;;;;;;;;;;;-5.70;99.90;;;;;;5100284;28;19964;-77
2022/12/13 08:22:26;;;;;;;;;;;-5.70;99.90;;;;;;5103883;28;19912;-72
2022/12/13 08:24:52;;;;;;;;;;;-5.80;99.90;;;;;;5112528;27;19908;-71
2022/12/13 08:27:17;;;;;;;;;;;-5.70;99.90;;;;;;5115150;28;20006;-71
2022/12/13 08:29:43;;;;;;;;;;;-5.60;99.90;;;;;;5111754;28;19908;-71
2022/12/13 08:32:09;;;;;;;;;;;-5.60;99.90;;;;;;5108836;28;19912;-71
2022/12/13 08:34:35;;;;;;;;;;;-5.50;99.90;;;;;;5110646;28;19919;-71
2022/12/13 08:37:01;;;;;;;;;;;-5.50;99.90;;;;;;5106978;28;19957;-76
2022/12/13 08:39:26;;;;;;;;;;;-5.50;99.90;;;;;;5102181;28;20353;-72
2022/12/13 08:41:52;;;;;;;;;;;-5.40;99.90;;;;;;5108876;28;19912;-75
2022/12/13 08:44:18;;;;;;;;;;;-5.40;99.90;;;;;;5111590;28;20033;-72
2022/12/13 08:46:43;;;;;;;;;;;-5.30;99.90;;;;;;5113638;28;20029;-71
2022/12/13 08:49:09;;;;;;;;;;;-5.10;99.90;;;;;;5104028;28;20207;-73
2022/12/13 08:51:35;;;;;;;;;;;-5.10;99.90;;;;;;5094688;28;19935;-75
2022/12/13 08:54:01;;;;;;;;;;;-5.10;99.90;;;;;;5105539;28;20235;-71
2022/12/13 08:56:26;;;;;;;;;;;-5.10;99.90;;;;;;5109978;28;19911;-72
2022/12/13 08:58:52;;;;;;;;;;;-5.10;99.90;;;;;;5103286;28;19918;-77
2022/12/13 09:01:17;;;;;;;;;;;-5.00;99.90;;;;;;5099509;28;20034;-72
2022/12/13 09:03:43;;;;;;;;;;;-5.00;99.90;;;;;;5096301;28;19923;-77
2022/12/13 09:06:10;;;;;;;;;;;-5.00;99.90;;;;;;5105498;28;19924;-72
2022/12/13 09:08:36;;;;;;;;;;;-4.90;99.90;;;;;;5094683;28;19926;-72
2022/12/13 09:11:02;;;;;;;;;;;-4.80;99.90;;;;;;5108181;28;19938;-72
2022/12/13 09:13:29;;;;;;;;;;;-4.80;99.90;;;;;;5096691;28;20579;-72
2022/12/13 09:15:55;;;;;;;;;;;-4.60;99.90;;;;;;5098091;28;19916;-72
2022/12/13 09:18:20;;;;;;;;;;;-4.60;99.90;;;;;;5119887;27;19908;-71
2022/12/13 09:20:46;;;;;;;;;;;-4.50;99.90;;;;;;5112131;28;19919;-73
2022/12/13 09:23:11;;;;;;;;;;;-4.30;99.90;;;;;;5097737;28;19961;-71
2022/12/13 09:25:37;;;;;;;;;;;-4.20;99.90;;;;;;5095106;28;20171;-73
2022/12/13 09:28:04;;;;;;;;;;;-4.10;99.90;;;;;;5108814;27;19934;-70
2022/12/13 09:30:30;;;;;;;;;;;-4.00;99.90;;;;;;5106265;28;20010;-74
2022/12/13 09:32:55;;;;;;;;;;;-3.90;99.90;;;;;;5109646;28;20053;-77
2022/12/13 09:35:21;;;;;;;;;;;-3.90;99.90;;;;;;5109332;28;19915;-72
2022/12/13 09:37:46;;;;;;;;;;;-3.80;99.90;;;;;;5107876;28;20337;-71
2022/12/13 09:40:17;;;;;;;;;;;-3.80;99.90;;;;;;5110471;27;20210;-71
2022/12/13 09:42:44;;;;;;;;;;;-3.70;99.90;;;;;;5111712;28;19915;-75
2022/12/13 09:45:10;;;;;;;;;;;-3.60;99.90;;;;;;5113319;28;20374;-72
2022/12/13 09:47:35;;;;;;;;;;;-3.50;99.90;;;;;;5104784;28;20185;-72
2022/12/13 09:50:05;;;;;;;;;;;-3.50;99.90;;;;;;5097601;28;20006;-74
2022/12/13 09:52:35;;;;;;;;;;;-3.50;99.90;;;;;;5097656;28;19916;-72
2022/12/13 09:55:01;;;;;;;;;;;-3.30;99.90;;;;;;5097131;28;19923;-72
2022/12/13 09:57:29;;;;;;;;;;;-3.20;99.90;;;;;;5096419;28;19912;-73
2022/12/13 09:59:54;;;;;;;;;;;-3.20;99.90;;;;;;5094646;28;19912;-76
2022/12/13 10:02:23;;;;;;;;;;;-3.20;99.90;;;;;;5096106;28;19958;-74
2022/12/13 10:04:48;;;;;;;;;;;-3.10;99.90;;;;;;5094475;28;19920;-73
2022/12/13 10:07:21;;;;;;;;;;;-3.00;99.90;;;;;;5096764;28;19909;-76
2022/12/13 10:09:47;;;;;;;;;;;-3.00;99.90;;;;;;5097411;28;19946;-73
2022/12/13 10:12:14;;;;;;;;;;;-2.90;99.90;;;;;;5101307;28;20118;-76
2022/12/13 10:14:44;;;;;;;;;;;-2.90;99.90;;;;;;5094348;28;19920;-76
2022/12/13 10:17:13;;;;;;;;;;;-2.80;99.90;;;;;;5099433;27;19985;-73
2022/12/13 10:19:40;;;;;;;;;;;-2.70;99.90;;;;;;5092027;27;19951;-77
2022/12/13 10:22:10;;;;;;;;;;;-2.60;99.90;;;;;;5094545;28;19912;-72
2022/12/13 10:24:49;;;;;;;;;;;-2.60;99.90;;;;;;5109552;28;19919;-72
2022/12/13 10:27:16;;;;;;;;;;;-2.50;99.90;;;;;;5108359;28;19920;-72
2022/12/13 10:30:14;;;;;;;;;;;-2.50;99.90;;;;;;5098188;28;20326;-72
2022/12/13 10:32:57;;;;;;;;;;;-2.40;99.90;;;;;;5083929;28;19927;-72
2022/12/13 10:35:24;;;;;;;;;;;-2.40;99.90;;;;;;5088180;28;20266;-77
2022/12/13 10:37:50;;;;;;;;;;;-2.30;99.90;;;;;;5088577;28;19961;-76
2022/12/13 10:40:31;;;;;;;;;;;-2.20;99.90;;;;;;5077375;28;19920;-73
2022/12/13 10:43:12;;;;;;;;;;;-2.20;99.90;;;;;;5078394;28;19919;-73
2022/12/13 10:45:37;;;;;;;;;;;-2.10;99.90;;;;;;5088421;28;19923;-73
2022/12/13 10:48:03;;;;;;;;;;;-2.00;99.90;;;;;;5091577;28;20227;-76
2022/12/13 10:50:29;;;;;;;;;;;-2.00;99.90;;;;;;5090881;28;19948;-76
2022/12/13 10:52:55;;;;;;;;;;;-1.90;99.90;;;;;;5088227;28;19913;-76
2022/12/13 10:55:32;;;;;;;;;;;-1.90;99.90;;;;;;5073188;28;19931;-72
2022/12/13 10:58:08;;;;;;;;;;;-1.80;99.90;;;;;;5087183;28;19912;-73
2022/12/13 11:00:36;;;;;;;;;;;-1.80;99.90;;;;;;5087466;28;20305;-72
2022/12/13 11:03:02;;;;;;;;;;;-1.80;99.90;;;;;;5085802;28;19920;-72
2022/12/13 11:05:29;;;;;;;;;;;-1.80;99.90;;;;;;5070301;28;19920;-73
2022/12/13 11:08:10;;;;;;;;;;;-1.80;99.90;;;;;;5099546;28;19998;-76
2022/12/13 11:10:36;;;;;;;;;;;-1.80;99.90;;;;;;5126351;27;19919;-76
2022/12/13 11:13:02;;;;;;;;;;;-1.70;99.90;;;;;;5107507;28;19911;-76
2022/12/13 11:15:29;;;;;;;;;;;-1.70;99.90;;;;;;5113758;28;20164;-75
2022/12/13 11:17:56;;;;;;;;;;;-1.70;99.90;;;;;;5106627;27;19924;-76
2022/12/13 11:20:27;;;;;;;;;;;-1.70;99.90;;;;;;5114540;28;19912;-73
2022/12/13 11:23:01;;;;;;;;;;;-1.60;99.90;;;;;;5108113;27;19964;-72
2022/12/13 11:25:33;;;;;;;;;;;-1.60;99.90;;;;;;5104879;28;19915;-75
2022/12/13 11:28:09;;;;;;;;;;;-1.60;99.90;;;;;;5109741;28;19926;-76
2022/12/13 11:30:38;;;;;;;;;;;-1.60;99.90;;;;;;5140816;27;19957;-72
2022/12/13 11:33:28;;;;;;;;;;;-1.60;99.90;;;;;;5111766;28;19912;-75
2022/12/13 11:36:12;;;;;;;;;;;-1.60;99.90;;;;;;5104033;28;20303;-75
2022/12/13 11:38:51;;;;;;;;;;;-1.50;99.90;;;;;;5096702;28;20006;-75
2022/12/13 11:41:22;;;;;;;;;;;-1.50;99.90;;;;;;5108295;28;19916;-72
2022/12/13 11:43:54;;;;;;;;;;;-1.50;99.90;;;;;;5098906;28;19937;-73
2022/12/13 11:46:25;;;;;;;;;;;-1.50;99.90;;;;;;5102225;28;19931;-75
2022/12/13 11:48:56;;;;;;;;;;;-1.60;99.90;;;;;;5109371;28;19912;-76
2022/12/13 11:51:35;;;;;;;;;;;-1.50;99.90;;;;;;5105440;28;19916;-72
2022/12/13 11:54:03;;;;;;;;;;;-1.60;99.90;;;;;;5111571;28;20072;-74
2022/12/13 11:56:41;;;;;;;;;;;-1.60;99.90;;;;;;5114866;28;20375;-72
2022/12/13 11:59:15;;;;;;;;;;;-1.60;99.90;;;;;;5116307;28;20205;-72
2022/12/13 12:02:05;;;;;;;;;;;-1.60;99.90;;;;;;5113702;28;19968;-71
2022/12/13 12:04:42;;;;;;;;;;;-1.50;99.90;;;;;;5096174;28;19919;-72
2022/12/13 12:07:12;;;;;;;;;;;-1.50;99.90;;;;;;5098123;28;19916;-72
2022/12/13 12:09:40;;;;;;;;;;;-1.50;99.90;;;;;;5106707;28;19965;-72
2022/12/13 12:12:10;;;;;;;;;;;-1.50;99.90;;;;;;5109253;28;19956;-73
2022/12/13 12:14:59;;;;;;;;;;;-1.50;99.90;;;;;;5109000;28;19970;-73
2022/12/13 12:17:25;;;;;;;;;;;-1.40;99.90;;;;;;5103337;28;19908;-72
2022/12/13 12:19:55;;;;;;;;;;;-1.30;99.90;;;;;;5135582;27;20014;-73
2022/12/13 12:22:39;;;;;;;;;;;-1.20;99.90;;;;;;5132191;27;20003;-76
2022/12/13 12:25:24;;;;;;;;;;;-1.10;99.90;;;;;;5112745;28;19920;-74
2022/12/13 12:27:55;;;;;;;;;;;-1.10;99.90;;;;;;5104486;27;19916;-73
2022/12/13 12:30:22;;;;;;;;;;;-1.00;99.90;;;;;;5102314;28;19919;-72
2022/12/13 12:32:53;;;;;;;;;;;-1.00;99.90;;;;;;5110056;28;19951;-71
2022/12/13 12:35:35;;;;;;;;;;;-0.90;99.90;;;;;;5111658;28;20306;-73
2022/12/13 12:38:04;;;;;;;;;;;-0.90;99.90;;;;;;5110784;28;20356;-72
2022/12/13 12:40:43;;;;;;;;;;;-0.90;99.90;;;;;;5108161;28;19916;-72
2022/12/13 12:43:28;;;;;;;;;;;-0.90;99.90;;;;;;5107007;28;19915;-75
2022/12/13 12:46:09;;;;;;;;;;;-0.90;99.90;;;;;;5110483;28;19954;-75
2022/12/13 12:48:57;;;;;;;;;;;-0.90;99.90;;;;;;5110344;28;20217;-77
2022/12/13 12:51:30;;;;;;;;;;;-0.90;99.90;;;;;;5076748;28;19911;-75
2022/12/13 12:54:14;;;;;;;;;;;-0.90;99.90;;;;;;5081496;27;19955;-72
2022/12/13 12:56:45;;;;;;;;;;;-0.90;99.90;;;;;;5094576;28;19908;-75
2022/12/13 12:59:21;;;;;;;;;;;-0.90;99.90;;;;;;5112734;27;19922;-74
2022/12/13 13:01:46;;;;;;;;;;;-0.90;99.90;;;;;;5104133;28;19916;-72
2022/12/13 13:04:14;;;;;;;;;;;-0.90;99.90;;;;;;5107736;28;19938;-73
2022/12/13 13:06:42;;;;;;;;;;;-0.90;99.90;;;;;;5107825;28;19911;-75
2022/12/13 13:09:09;;;;;;;;;;;-1.00;99.90;;;;;;5107647;28;19916;-74
2022/12/13 13:11:37;;;;;;;;;;;-1.00;99.90;;;;;;5103198;28;19916;-72
2022/12/13 13:14:05;;;;;;;;;;;-1.10;99.90;;;;;;5102719;28;19912;-72
2022/12/13 13:16:38;;;;;;;;;;;-1.20;99.90;;;;;;5106169;28;19939;-75
2022/12/13 13:19:09;;;;;;;;;;;-1.20;99.90;;;;;;5095695;28;19954;-76
2022/12/13 13:21:46;;;;;;;;;;;-1.20;99.90;;;;;;5107476;28;19926;-72
2022/12/13 13:24:18;;;;;;;;;;;-1.30;99.90;;;;;;5095445;28;19908;-72
2022/12/13 13:26:46;;;;;;;;;;;-1.30;99.90;;;;;;5096900;28;19912;-74
2022/12/13 13:29:24;;;;;;;;;;;-1.30;99.90;;;;;;5099609;28;20009;-71
2022/12/13 13:32:09;;;;;;;;;;;-1.30;99.90;;;;;;5110710;28;19915;-75
2022/12/13 13:34:42;;;;;;;;;;;-1.30;99.90;;;;;;5113641;28;19923;-74
2022/12/13 13:37:20;;;;;;;;;;;-1.40;99.90;;;;;;5107472;28;19943;-72
2022/12/13 13:39:51;;;;;;;;;;;-1.40;99.90;;;;;;5109296;28;20389;-75
2022/12/13 13:42:18;;;;;;;;;;;-1.40;99.90;;;;;;5104346;28;19966;-72
2022/12/13 13:44:43;;;;;;;;;;;-1.50;99.90;;;;;;5094336;28;19908;-74
2022/12/13 13:47:10;;;;;;;;;;;-1.60;99.90;;;;;;5094933;28;20324;-72
2022/12/13 13:49:40;;;;;;;;;;;-1.60;99.90;;;;;;5093784;28;19965;-73
2022/12/13 13:52:19;;;;;;;;;;;-1.60;99.90;;;;;;5093596;28;19951;-71
2022/12/13 13:55:00;;;;;;;;;;;-1.60;99.90;;;;;;5107620;28;19920;-72
2022/12/13 13:57:44;;;;;;;;;;;-1.70;99.90;;;;;;5100401;28;19919;-72
2022/12/13 14:00:13;;;;;;;;;;;-1.70;99.90;;;;;;5090884;27;19918;-71
2022/12/13 14:02:38;;;;;;;;;;;-1.80;99.90;;;;;;5094133;28;19970;-73
2022/12/13 14:05:04;;;;;;;;;;;-1.80;99.90;;;;;;5098320;28;19943;-75
2022/12/13 14:07:47;;;;;;;;;;;-1.90;99.90;;;;;;5096978;28;19958;-72
2022/12/13 14:10:13;;;;;;;;;;;-1.80;99.90;;;;;;5107158;28;19958;-75
2022/12/13 14:12:57;;;;;;;;;;;-1.90;99.90;;;;;;5094724;28;20372;-75
2022/12/13 14:15:38;;;;;;;;;;;-1.90;99.90;;;;;;5094563;28;19912;-75
2022/12/13 14:18:03;;;;;;;;;;;-1.90;99.90;;;;;;5101457;28;19912;-72
2022/12/13 14:20:35;;;;;;;;;;;-1.90;99.90;;;;;;5093987;28;20201;-75
2022/12/13 14:23:13;;;;;;;;;;;-2.00;99.90;;;;;;5093698;28;19916;-72
2022/12/13 14:25:47;;;;;;;;;;;-2.00;99.90;;;;;;5100817;28;19922;-74
2022/12/13 14:28:28;;;;;;;;;;;-2.00;99.90;;;;;;5102221;28;19908;-73
2022/12/13 14:30:53;;;;;;;;;;;-2.10;99.90;;;;;;5094434;28;20210;-72
2022/12/13 14:33:23;;;;;;;;;;;-2.10;99.90;;;;;;5107893;28;19908;-73